Skip Navigation Links
NOAA logo - Click to go to the NOAA homepage
NOAA's National Weather Service
Alaska Aviation Weather Unit
  NWS logo - Click to go to the NWS homepage
Left Navbar Graphic     17 AKDT = 01 GMT

   
NOAA is celebrating 200 years of science, service, and stewardship. Visit the NOAA 200th celebration Web site to learn more.
USA.gov is the U.S. Government's official Web portal to all Federal, state and local government Web resources and services.
Facebook
NWS on Facebook

Important Change Regarding the AAWU Web Presence

 

Over the last several months, the AAWU has been working to navigate its webpages to a nationally supported server. Security, as well as other needs, have necessitated the change.  In the process, we have made an effort to enhance the functionality of our website, as well as some of our products. As of June 27, 2017, aawu.arh.noaa.gov will be discontinued. The new AAWU web address is weather.gov/aawu. It is now live and will run in-parallel with the old site until it is discontinued. Please send any feedback or questions regarding the new webpages to nws.ar.aawu.webauthors@noaa.gov.  Thank you for your patience during this time of transition.
AAWU Home :: Display TAF Add Bookmark
TAF PAIL 252331Z 2600/2624 16006KT P6SM SCT040
     FM261200 08008KT P6SM VCSH SCT025 OVC050
     FM261800 09009G25KT P6SM VCSH SCT025 OVC050=

METAR PAIL 251953Z COR 10004KT 10SM VCFG BKN060 12/09 A3002 RMK AO2 SLP165 T01220089= METAR PAIL 252053Z 13006KT 10SM VCFG BKN060 14/09 A3000 RMK AO2 SLP160 T01440089 58013= METAR PAIL 252153Z 15005KT 10SM CLR 16/09 A2998 RMK AO2 SLP153 T01610089= METAR PAIL 252253Z 13006KT 10SM CLR 18/07 A2996 RMK AO2 SLP145 T01780067= METAR PAIL 252353Z 13005KT 10SM CLR 18/06 A2994 RMK AO2 SLP139 T01780056 10189 20111 56022=
 Alaska TAF Map

NOAA's National Weather Service
Alaska Aviation Weather Unit
6930 Sand Lake Road
Anchorage, AK 99502-1845
Disclaimer
Credits
Glossary
Privacy Policy
About Us
Career Opportunities
Contact AAWU Internet Services Site last modified: April, 17th 2012